createdAt,value
2018-06-15T00:03:06.163Z,18.05
2018-06-15T00:07:09.644Z,18.06
2018-06-15T00:11:13.068Z,18.05
2018-06-15T00:15:16.475Z,18.06
2018-06-15T00:19:19.958Z,18.05
2018-06-15T00:23:23.406Z,18.05
2018-06-15T00:27:26.822Z,18.05
2018-06-15T00:31:30.463Z,18.04
2018-06-15T00:35:33.891Z,18.04
2018-06-15T00:39:37.372Z,18.02
2018-06-15T00:43:40.847Z,17.99
2018-06-15T00:47:44.271Z,17.99
2018-06-15T00:51:47.715Z,17.96
2018-06-15T00:55:51.118Z,17.93
2018-06-15T00:59:54.562Z,17.95
2018-06-15T01:03:57.970Z,17.93
2018-06-15T01:08:01.434Z,17.93
2018-06-15T01:12:05.076Z,17.94
2018-06-15T01:16:08.552Z,17.95
2018-06-15T01:20:12.096Z,17.92
2018-06-15T01:24:15.527Z,17.90
2018-06-15T01:28:18.982Z,17.88
2018-06-15T01:32:22.431Z,17.87
2018-06-15T01:36:25.895Z,17.87
2018-06-15T01:40:29.347Z,17.85
2018-06-15T01:44:32.783Z,17.81
2018-06-15T01:48:36.294Z,17.80
2018-06-15T01:52:39.728Z,17.79
2018-06-15T01:56:43.235Z,17.77
2018-06-15T02:00:47.075Z,17.78
2018-06-15T02:04:50.505Z,17.76
2018-06-15T02:08:53.968Z,17.76
2018-06-15T02:12:57.427Z,17.76
2018-06-15T02:17:00.914Z,17.75
2018-06-15T02:21:04.340Z,17.74
2018-06-15T02:25:07.784Z,17.76
2018-06-15T02:29:11.210Z,17.78
2018-06-15T02:33:14.667Z,17.79
2018-06-15T02:37:18.144Z,17.75
2018-06-15T02:41:21.574Z,17.73
2018-06-15T02:45:25.064Z,17.70
2018-06-15T02:49:28.528Z,17.70
2018-06-15T02:53:31.940Z,17.69
2018-06-15T02:57:35.411Z,17.68
2018-06-15T03:01:38.838Z,17.65
2018-06-15T03:05:42.290Z,17.66
2018-06-15T03:09:45.770Z,17.64
2018-06-15T03:13:49.230Z,17.67
2018-06-15T03:17:52.683Z,17.68
2018-06-15T03:21:56.097Z,17.67
2018-06-15T03:25:59.845Z,17.67
2018-06-15T03:30:03.375Z,17.67
2018-06-15T03:34:06.854Z,17.67
2018-06-15T03:38:10.365Z,17.69
2018-06-15T03:42:13.826Z,17.67
2018-06-15T03:46:17.278Z,17.69
2018-06-15T03:50:20.741Z,17.70
2018-06-15T03:54:24.193Z,17.70
2018-06-15T03:58:28.523Z,17.70
2018-06-15T04:02:31.967Z,17.68
2018-06-15T04:06:35.413Z,17.71
2018-06-15T04:10:38.862Z,17.72
2018-06-15T04:14:42.325Z,17.74
2018-06-15T04:18:45.758Z,17.74
2018-06-15T04:22:49.160Z,17.76
2018-06-15T04:26:52.612Z,17.79
2018-06-15T04:30:56.028Z,17.77
2018-06-15T04:34:59.483Z,17.77
2018-06-15T04:39:02.999Z,17.78
2018-06-15T04:43:06.526Z,17.78
2018-06-15T04:47:09.972Z,17.77
2018-06-15T04:51:13.443Z,17.74
2018-06-15T04:55:16.853Z,17.76
2018-06-15T04:59:20.316Z,17.77
2018-06-15T05:03:23.721Z,17.79
2018-06-15T05:07:27.308Z,17.79
2018-06-15T05:11:30.753Z,17.80
2018-06-15T05:15:34.422Z,17.81
2018-06-15T05:19:37.830Z,17.80
2018-06-15T05:23:41.273Z,17.85
2018-06-15T05:27:44.698Z,17.91
2018-06-15T05:31:48.187Z,17.99
2018-06-15T05:35:51.662Z,18.12
2018-06-15T05:39:55.134Z,18.23
2018-06-15T05:43:58.573Z,18.30
2018-06-15T05:48:02.033Z,18.31
2018-06-15T05:52:05.550Z,18.32
2018-06-15T05:56:08.980Z,18.29
2018-06-15T06:00:12.394Z,18.30
2018-06-15T06:04:15.869Z,18.30
2018-06-15T06:08:20.588Z,18.31
2018-06-15T06:12:24.017Z,18.29
2018-06-15T06:16:27.485Z,18.26
2018-06-15T06:20:30.939Z,18.23
2018-06-15T06:24:34.371Z,18.23
2018-06-15T06:28:37.828Z,18.24
2018-06-15T06:32:41.328Z,18.28
2018-06-15T06:36:44.746Z,18.29
2018-06-15T06:40:48.154Z,18.29
2018-06-15T06:44:51.607Z,18.28
2018-06-15T06:48:55.103Z,18.28
2018-06-15T06:52:58.560Z,18.27
2018-06-15T06:57:02.022Z,18.33
2018-06-15T07:01:05.448Z,18.36
2018-06-15T07:05:08.897Z,18.39
2018-06-15T07:09:12.332Z,18.41
2018-06-15T07:13:15.812Z,18.47
2018-06-15T07:17:19.212Z,18.50
2018-06-15T07:21:22.669Z,18.51
2018-06-15T07:25:26.124Z,18.54
2018-06-15T07:29:29.580Z,18.54
2018-06-15T07:33:33.002Z,18.57
2018-06-15T07:37:36.486Z,18.62
2018-06-15T07:41:39.956Z,18.66
2018-06-15T07:45:43.518Z,18.69
2018-06-15T07:49:46.901Z,18.72
2018-06-15T07:53:50.331Z,18.76
2018-06-15T07:57:53.766Z,18.77
2018-06-15T08:01:57.199Z,18.81
2018-06-15T08:06:00.647Z,18.80
2018-06-15T08:10:04.065Z,18.84
2018-06-15T08:14:07.511Z,18.88
2018-06-15T08:18:10.942Z,18.93
2018-06-15T08:22:14.455Z,18.96
2018-06-15T08:26:17.843Z,18.97
2018-06-15T08:30:21.283Z,19.02
2018-06-15T08:34:24.689Z,19.04
2018-06-15T08:38:28.116Z,19.10
2018-06-15T08:42:31.652Z,19.14
2018-06-15T08:46:35.072Z,19.18
2018-06-15T08:50:38.702Z,19.28
2018-06-15T08:54:42.142Z,19.32
2018-06-15T08:58:45.603Z,19.36
2018-06-15T09:02:49.051Z,19.40
2018-06-15T09:06:52.518Z,19.44
2018-06-15T09:10:55.942Z,19.51
2018-06-15T09:14:59.605Z,19.56
2018-06-15T09:19:03.026Z,19.67
2018-06-15T09:23:06.495Z,19.79
2018-06-15T09:27:09.963Z,19.88
2018-06-15T09:31:13.387Z,20.08
2018-06-15T09:35:16.862Z,20.29
2018-06-15T09:39:20.301Z,20.52
2018-06-15T09:43:23.870Z,20.74
2018-06-15T09:47:27.290Z,20.93
2018-06-15T09:51:30.752Z,21.11
2018-06-15T09:55:34.183Z,21.20
2018-06-15T09:59:37.610Z,21.22
2018-06-15T10:03:41.368Z,21.28
2018-06-15T10:07:44.793Z,21.41
2018-06-15T10:11:48.261Z,21.58
2018-06-15T10:15:51.701Z,21.74
2018-06-15T10:19:55.143Z,21.95
2018-06-15T10:23:58.734Z,22.24
2018-06-15T10:28:02.188Z,22.41
2018-06-15T10:32:05.902Z,22.59
2018-06-15T10:36:09.366Z,22.74
2018-06-15T10:40:12.838Z,22.81
2018-06-15T10:44:16.282Z,23.06
2018-06-15T10:48:19.712Z,23.12
2018-06-15T10:52:23.169Z,23.17
2018-06-15T10:56:26.626Z,23.27
2018-06-15T11:00:30.063Z,23.35
2018-06-15T11:04:33.617Z,23.43
2018-06-15T11:08:37.059Z,23.45
2018-06-15T11:12:40.481Z,23.48
2018-06-15T11:16:43.915Z,23.50
2018-06-15T11:20:47.322Z,23.57
2018-06-15T11:24:50.773Z,23.66
2018-06-15T11:28:54.245Z,23.70
2018-06-15T11:32:57.681Z,23.71
2018-06-15T11:37:01.356Z,23.69
2018-06-15T11:41:04.895Z,23.78
2018-06-15T11:45:08.271Z,23.81
2018-06-15T11:49:11.704Z,23.85
2018-06-15T11:53:15.105Z,23.89
2018-06-15T11:57:18.601Z,23.92
2018-06-15T12:01:22.029Z,24.02
2018-06-15T12:05:25.655Z,24.00
2018-06-15T12:09:29.102Z,24.04
2018-06-15T12:13:32.527Z,24.15
2018-06-15T12:17:35.927Z,24.18
2018-06-15T12:21:39.376Z,24.14
2018-06-15T12:25:42.807Z,24.12
2018-06-15T12:29:46.221Z,24.11
2018-06-15T12:33:49.786Z,24.05
2018-06-15T12:37:53.442Z,24.00
2018-06-15T12:41:56.898Z,23.93
2018-06-15T12:46:00.441Z,23.87
2018-06-15T12:50:03.905Z,23.85
2018-06-15T12:54:07.321Z,23.81
2018-06-15T12:58:10.757Z,23.86
2018-06-15T13:02:14.239Z,24.00
2018-06-15T13:06:18.525Z,24.09
2018-06-15T13:10:21.950Z,24.10
2018-06-15T13:14:25.382Z,24.14
2018-06-15T13:18:28.783Z,24.19
2018-06-15T13:22:32.212Z,24.30
2018-06-15T13:26:35.645Z,24.38
2018-06-15T13:30:39.065Z,24.47
2018-06-15T13:34:42.478Z,24.61
2018-06-15T13:38:45.919Z,24.63
2018-06-15T13:42:49.406Z,24.64
2018-06-15T13:46:52.899Z,24.64
2018-06-15T13:50:56.610Z,24.70
2018-06-15T13:55:00.047Z,24.81
2018-06-15T13:59:03.509Z,24.99
2018-06-15T14:03:06.935Z,25.08
2018-06-15T14:07:10.337Z,25.17
2018-06-15T14:11:13.795Z,25.34
2018-06-15T14:15:17.243Z,25.39
2018-06-15T14:19:20.679Z,25.42
2018-06-15T14:23:24.232Z,25.42
2018-06-15T14:27:27.657Z,25.44
2018-06-15T14:31:31.329Z,25.48
2018-06-15T14:35:34.753Z,25.46
2018-06-15T14:39:38.207Z,25.44
2018-06-15T14:43:41.659Z,25.52
2018-06-15T14:47:45.091Z,25.61
2018-06-15T14:51:48.525Z,25.59
2018-06-15T14:55:51.933Z,25.69
2018-06-15T14:59:55.357Z,25.68
2018-06-15T15:03:58.775Z,25.62
2018-06-15T15:08:02.233Z,25.54
2018-06-15T15:12:05.739Z,25.52
2018-06-15T15:16:09.152Z,25.49
2018-06-15T15:20:12.639Z,25.43
2018-06-15T15:24:16.079Z,25.37
2018-06-15T15:28:19.476Z,25.33
2018-06-15T15:32:22.962Z,25.24
2018-06-15T15:36:26.456Z,25.21
2018-06-15T15:40:29.835Z,25.12
2018-06-15T15:44:33.274Z,25.05
2018-06-15T15:48:36.718Z,24.99
2018-06-15T15:52:40.142Z,24.90
2018-06-15T15:56:43.594Z,24.83
2018-06-15T16:00:47.014Z,24.80
2018-06-15T16:04:50.439Z,24.81
2018-06-15T16:08:53.886Z,24.81
2018-06-15T16:12:57.316Z,24.84
2018-06-15T16:17:00.759Z,24.86
2018-06-15T16:21:04.186Z,24.83
2018-06-15T16:25:07.675Z,24.83
2018-06-15T16:29:11.119Z,24.85
2018-06-15T16:33:14.554Z,24.84
2018-06-15T16:37:18.046Z,24.83
2018-06-15T16:41:21.510Z,24.84
2018-06-15T16:45:24.973Z,24.82
2018-06-15T16:49:28.487Z,24.80
2018-06-15T16:53:32.138Z,24.80
2018-06-15T16:57:35.563Z,24.81
2018-06-15T17:01:39.009Z,24.75
2018-06-15T17:05:42.386Z,24.74
2018-06-15T17:09:45.878Z,24.70
2018-06-15T17:13:49.331Z,24.69
2018-06-15T17:17:52.738Z,24.66
2018-06-15T17:21:56.185Z,24.60
2018-06-15T17:25:59.630Z,24.57
2018-06-15T17:30:03.160Z,24.56
2018-06-15T17:34:06.727Z,24.54
2018-06-15T17:38:10.232Z,24.52
2018-06-15T17:42:13.622Z,24.48
2018-06-15T17:46:17.144Z,24.43
2018-06-15T17:50:20.546Z,24.43
2018-06-15T17:54:23.976Z,24.41
2018-06-15T17:58:27.412Z,24.41
2018-06-15T18:02:30.868Z,24.42
2018-06-15T18:06:34.329Z,24.39
2018-06-15T18:10:37.795Z,24.34
2018-06-15T18:14:41.578Z,24.30
2018-06-15T18:18:44.978Z,24.26
2018-06-15T18:22:48.420Z,24.23
2018-06-15T18:26:54.592Z,24.19
2018-06-15T18:30:58.371Z,24.18
2018-06-15T18:35:02.379Z,24.16
2018-06-15T18:39:08.987Z,24.10
2018-06-15T18:43:12.401Z,24.08
2018-06-15T18:47:15.838Z,24.06
2018-06-15T18:51:19.271Z,24.05
2018-06-15T18:55:22.774Z,24.00
2018-06-15T18:59:26.187Z,23.98
2018-06-15T19:03:29.613Z,23.91
2018-06-15T19:07:33.051Z,23.86
2018-06-15T19:11:36.510Z,23.83
2018-06-15T19:15:39.980Z,23.81
2018-06-15T19:19:43.413Z,23.77
2018-06-15T19:23:46.855Z,23.75
2018-06-15T19:27:50.302Z,23.72
2018-06-15T19:31:53.901Z,23.72
2018-06-15T19:35:57.348Z,23.68
2018-06-15T19:40:00.759Z,23.65
2018-06-15T19:44:04.166Z,23.59
2018-06-15T19:48:07.661Z,23.53
2018-06-15T19:52:11.053Z,23.50
2018-06-15T19:56:14.485Z,23.49
2018-06-15T20:00:17.891Z,23.48
2018-06-15T20:04:21.338Z,23.47
2018-06-15T20:08:24.781Z,23.47
2018-06-15T20:12:28.207Z,23.43
2018-06-15T20:16:31.645Z,23.38
2018-06-15T20:20:35.062Z,23.35
2018-06-15T20:24:38.487Z,23.34
2018-06-15T20:28:41.928Z,23.31
2018-06-15T20:32:45.339Z,23.26
2018-06-15T20:36:48.773Z,23.22
2018-06-15T20:40:52.206Z,23.18
2018-06-15T20:44:55.730Z,23.13
2018-06-15T20:48:59.122Z,23.08
2018-06-15T20:53:02.695Z,23.05
2018-06-15T20:57:06.381Z,23.00
2018-06-15T21:01:09.796Z,22.97
2018-06-15T21:05:13.240Z,22.91
2018-06-15T21:09:16.670Z,22.88
2018-06-15T21:13:20.139Z,22.83
2018-06-15T21:17:23.590Z,22.79
2018-06-15T21:21:27.033Z,22.77
2018-06-15T21:25:30.466Z,22.72
2018-06-15T21:29:33.951Z,22.70
2018-06-15T21:33:37.464Z,22.66
2018-06-15T21:37:40.921Z,22.62
2018-06-15T21:41:44.373Z,22.59
2018-06-15T21:45:47.790Z,22.55
2018-06-15T21:49:51.246Z,22.47
2018-06-15T21:53:54.714Z,22.42
2018-06-15T21:57:58.128Z,22.38
2018-06-15T22:02:01.610Z,22.33
2018-06-15T22:06:05.038Z,22.31
2018-06-15T22:10:08.461Z,22.27
2018-06-15T22:14:15.237Z,22.25
2018-06-15T22:18:18.722Z,22.21
2018-06-15T22:22:22.151Z,22.17
2018-06-15T22:26:25.585Z,22.14
2018-06-15T22:30:29.000Z,22.11
2018-06-15T22:34:32.441Z,22.07
2018-06-15T22:38:35.879Z,22.04
2018-06-15T22:42:39.319Z,22.00
2018-06-15T22:46:43.220Z,21.96
2018-06-15T22:50:46.690Z,21.95
2018-06-15T22:54:50.193Z,21.92
2018-06-15T22:58:53.628Z,21.90
2018-06-15T23:02:57.036Z,21.91
2018-06-15T23:07:00.466Z,21.90
2018-06-15T23:11:03.921Z,21.89
2018-06-15T23:15:07.363Z,21.89
2018-06-15T23:19:10.806Z,21.87
2018-06-15T23:23:14.198Z,21.81
2018-06-15T23:27:17.646Z,21.79
2018-06-15T23:31:21.066Z,21.76
2018-06-15T23:35:24.484Z,21.73
2018-06-15T23:39:28.165Z,21.70
2018-06-15T23:43:31.606Z,21.65
2018-06-15T23:47:35.016Z,21.63
2018-06-15T23:51:38.591Z,21.59
2018-06-15T23:55:42.002Z,21.53
2018-06-15T23:59:45.450Z,21.50
